Time;durP1;ratioP1;P1;durP2;ratioP2;P2;SDS_P1;SDS_P2;PMS_P1;PMS_P2;Temp;Humidity;BMP_temperature;BMP_pressure;BME280_temperature;BME280_humidity;BME280_pressure;Samples;Min_cycle;Max_cycle;Signal;HPM_P1;HPM_P2
2023/05/28 00:01:00;;;;;;;3.65;3.22;;;12.30;99.90;;;;;;4978416;28;20199;-83
2023/05/28 00:03:27;;;;;;;7.32;4.68;;;12.20;99.90;;;;;;4984934;28;20230;-83
2023/05/28 00:05:55;;;;;;;5.30;3.67;;;12.20;99.90;;;;;;5002697;28;20245;-85
2023/05/28 00:08:23;;;;;;;4.70;3.58;;;12.10;99.90;;;;;;4979212;28;20204;-83
2023/05/28 00:10:50;;;;;;;9.25;3.40;;;12.10;99.90;;;;;;4981898;28;20308;-85
2023/05/28 00:13:18;;;;;;;4.78;3.60;;;12.10;99.90;;;;;;4980290;28;20553;-86
2023/05/28 00:15:44;;;;;;;7.70;3.70;;;12.20;99.90;;;;;;4982410;28;20227;-84
2023/05/28 00:18:14;;;;;;;4.65;3.22;;;12.00;99.90;;;;;;4972325;28;20215;-85
2023/05/28 00:20:41;;;;;;;4.93;3.38;;;12.10;99.90;;;;;;4980500;28;20235;-84
2023/05/28 00:23:08;;;;;;;5.47;3.45;;;12.10;99.90;;;;;;4970018;28;20203;-84
2023/05/28 00:25:35;;;;;;;4.43;3.42;;;11.90;99.90;;;;;;4973317;28;20211;-87
2023/05/28 00:28:02;;;;;;;7.40;4.00;;;11.80;99.90;;;;;;4975090;28;20434;-83
2023/05/28 00:30:29;;;;;;;6.22;3.00;;;11.90;99.90;;;;;;4979115;28;20304;-84
2023/05/28 00:32:56;;;;;;;5.03;3.70;;;11.80;99.90;;;;;;4980537;28;20199;-83
2023/05/28 00:35:23;;;;;;;4.93;3.60;;;11.80;99.90;;;;;;4970296;28;20258;-86
2023/05/28 00:37:52;;;;;;;4.55;3.63;;;11.90;99.90;;;;;;4973710;28;20202;-83
2023/05/28 00:40:21;;;;;;;12.02;4.55;;;11.80;99.90;;;;;;4978199;28;20206;-83
2023/05/28 00:42:51;;;;;;;6.53;3.90;;;11.90;99.90;;;;;;4974827;28;20213;-88
2023/05/28 00:45:18;;;;;;;4.43;3.15;;;11.90;99.90;;;;;;4976725;28;20187;-83
2023/05/28 00:47:45;;;;;;;8.02;3.40;;;11.90;99.90;;;;;;4982404;28;20195;-79
2023/05/28 00:50:17;;;;;;;6.68;3.53;;;11.80;99.90;;;;;;4980334;28;20257;-80
2023/05/28 00:52:47;;;;;;;4.53;3.33;;;11.80;99.90;;;;;;4964349;28;20206;-86
2023/05/28 00:55:15;;;;;;;4.65;3.17;;;11.70;99.90;;;;;;4980770;28;20205;-86
2023/05/28 00:57:43;;;;;;;6.97;3.00;;;11.70;99.90;;;;;;4981024;28;20202;-83
2023/05/28 01:00:11;;;;;;;3.80;3.05;;;11.70;99.90;;;;;;4970431;28;20214;-84
2023/05/28 01:02:37;;;;;;;6.80;3.67;;;11.70;99.90;;;;;;4983103;28;20209;-83
2023/05/28 01:05:05;;;;;;;5.50;3.58;;;11.50;99.90;;;;;;4990043;28;20256;-80
2023/05/28 01:07:32;;;;;;;12.93;4.32;;;11.50;99.90;;;;;;4982019;28;20541;-87
2023/05/28 01:10:02;;;;;;;3.65;3.10;;;11.50;99.90;;;;;;4983259;28;20238;-83
2023/05/28 01:12:31;;;;;;;7.57;4.47;;;11.50;99.90;;;;;;4991634;28;20201;-81
2023/05/28 01:14:58;;;;;;;6.75;3.63;;;11.60;99.90;;;;;;4981051;28;20209;-83
2023/05/28 01:17:25;;;;;;;5.50;3.17;;;11.50;99.90;;;;;;4991571;28;20217;-83
2023/05/28 01:19:53;;;;;;;5.32;3.92;;;11.50;99.90;;;;;;4987728;28;20268;-83
2023/05/28 01:22:28;;;;;;;4.82;3.92;;;11.50;99.90;;;;;;4983586;28;20557;-85
2023/05/28 01:24:56;;;;;;;3.67;3.10;;;11.40;99.90;;;;;;4984413;28;20194;-84
2023/05/28 01:27:24;;;;;;;5.30;3.65;;;11.20;99.90;;;;;;4978580;28;20421;-83
2023/05/28 01:29:51;;;;;;;9.98;3.80;;;11.30;99.90;;;;;;4980175;28;20251;-84
2023/05/28 01:32:17;;;;;;;5.85;4.32;;;11.20;99.90;;;;;;4967702;28;20309;-83
2023/05/28 01:34:45;;;;;;;11.20;3.92;;;11.00;99.90;;;;;;4977566;28;20276;-81
2023/05/28 01:37:15;;;;;;;6.18;3.60;;;11.00;99.90;;;;;;5001200;28;20206;-85
2023/05/28 01:39:46;;;;;;;5.03;4.25;;;10.90;99.90;;;;;;4985495;28;20230;-86
2023/05/28 01:42:14;;;;;;;7.82;4.70;;;10.90;99.90;;;;;;4977533;28;20489;-80
2023/05/28 01:44:42;;;;;;;7.70;3.30;;;10.80;99.90;;;;;;4983408;28;20453;-83
2023/05/28 01:47:11;;;;;;;4.72;3.92;;;10.90;99.90;;;;;;4976210;28;20448;-85
2023/05/28 01:49:38;;;;;;;4.70;3.53;;;10.90;99.90;;;;;;4987942;28;20221;-79
2023/05/28 01:52:07;;;;;;;4.65;3.33;;;10.90;99.90;;;;;;4979838;28;20247;-84
2023/05/28 01:54:34;;;;;;;5.97;3.70;;;10.90;99.90;;;;;;4970254;28;20538;-81
2023/05/28 01:57:04;;;;;;;4.22;3.55;;;10.90;99.90;;;;;;4992800;28;20266;-86
2023/05/28 01:59:31;;;;;;;6.57;4.47;;;10.90;99.90;;;;;;4970507;28;20554;-87
2023/05/28 02:01:58;;;;;;;7.57;3.53;;;10.80;99.90;;;;;;4991003;28;20371;-87
2023/05/28 02:04:25;;;;;;;5.03;4.05;;;10.70;99.90;;;;;;4982791;28;20218;-84
2023/05/28 02:06:52;;;;;;;6.13;4.95;;;10.60;99.90;;;;;;4975933;28;20209;-84
2023/05/28 02:09:19;;;;;;;5.32;3.53;;;10.60;99.90;;;;;;4986221;28;20226;-81
2023/05/28 02:11:46;;;;;;;5.72;4.60;;;10.60;99.90;;;;;;4980934;28;20895;-84
2023/05/28 02:14:16;;;;;;;7.70;4.68;;;10.50;99.90;;;;;;4992066;28;20502;-89
2023/05/28 02:16:47;;;;;;;5.30;3.83;;;10.40;99.90;;;;;;4979523;28;20198;-88
2023/05/28 02:19:16;;;;;;;7.43;5.10;;;10.20;99.90;;;;;;4986166;28;20502;-86
2023/05/28 02:21:42;;;;;;;6.35;4.60;;;10.20;99.90;;;;;;4980168;28;20358;-84
2023/05/28 02:24:09;;;;;;;3.78;3.20;;;10.20;99.90;;;;;;4989775;28;20388;-82
2023/05/28 02:26:36;;;;;;;4.20;3.55;;;10.00;99.90;;;;;;4996156;28;20229;-81
2023/05/28 02:29:03;;;;;;;6.28;4.78;;;10.10;99.90;;;;;;5003018;28;20205;-81
2023/05/28 02:31:30;;;;;;;5.00;3.47;;;10.10;99.90;;;;;;4991254;28;20209;-82
2023/05/28 02:33:58;;;;;;;6.03;3.53;;;10.10;99.90;;;;;;4987113;28;20229;-82
2023/05/28 02:36:25;;;;;;;7.30;4.63;;;10.20;99.90;;;;;;4984482;28;20210;-85
2023/05/28 02:38:52;;;;;;;5.22;3.63;;;10.20;99.90;;;;;;4998429;28;20213;-84
2023/05/28 02:41:19;;;;;;;8.38;4.43;;;10.10;99.90;;;;;;4995334;28;20254;-82
2023/05/28 02:43:46;;;;;;;18.23;4.53;;;10.10;99.90;;;;;;4994226;28;20821;-87
2023/05/28 02:46:13;;;;;;;5.57;4.88;;;10.10;99.90;;;;;;4990931;28;20191;-87
2023/05/28 02:48:40;;;;;;;8.23;4.60;;;10.10;99.90;;;;;;4981219;28;20209;-86
2023/05/28 02:51:06;;;;;;;8.75;4.80;;;10.00;99.90;;;;;;5003360;28;20257;-88
2023/05/28 02:53:34;;;;;;;10.07;4.15;;;9.90;99.90;;;;;;4987534;28;20214;-84
2023/05/28 02:56:01;;;;;;;5.18;4.32;;;10.00;99.90;;;;;;4990990;28;20210;-79
2023/05/28 02:58:30;;;;;;;4.72;3.95;;;10.00;99.90;;;;;;4986044;28;20210;-83
2023/05/28 03:00:57;;;;;;;9.07;4.63;;;9.70;99.90;;;;;;4975367;28;20202;-83
2023/05/28 03:03:24;;;;;;;7.78;5.70;;;9.80;99.90;;;;;;4990346;28;20357;-85
2023/05/28 03:05:52;;;;;;;12.75;3.83;;;9.80;99.90;;;;;;4979346;28;20275;-86
2023/05/28 03:08:19;;;;;;;6.07;4.88;;;9.80;99.90;;;;;;4988016;28;20241;-86
2023/05/28 03:10:47;;;;;;;6.15;4.43;;;9.80;99.90;;;;;;5001402;28;20226;-85
2023/05/28 03:13:13;;;;;;;7.70;4.90;;;9.80;99.90;;;;;;4991331;28;20206;-85
2023/05/28 03:15:40;;;;;;;6.18;4.35;;;9.70;99.90;;;;;;4990971;28;20350;-83
2023/05/28 03:18:07;;;;;;;9.98;5.30;;;10.10;99.90;;;;;;4980770;28;20224;-81
2023/05/28 03:20:35;;;;;;;6.95;4.20;;;9.80;99.90;;;;;;4985707;28;20206;-83
2023/05/28 03:23:02;;;;;;;6.75;4.38;;;9.90;99.90;;;;;;4983379;28;20241;-86
2023/05/28 03:25:29;;;;;;;4.13;3.72;;;9.90;99.90;;;;;;4982337;28;20199;-85
2023/05/28 03:27:56;;;;;;;7.97;4.47;;;10.00;99.90;;;;;;4990250;28;20191;-80
2023/05/28 03:30:23;;;;;;;6.13;4.72;;;10.30;99.90;;;;;;4984321;28;20242;-83
2023/05/28 03:32:50;;;;;;;4.78;4.30;;;10.40;99.90;;;;;;4992224;28;20208;-85
2023/05/28 03:35:19;;;;;;;8.45;4.93;;;10.60;99.90;;;;;;4983249;28;20239;-86
2023/05/28 03:37:47;;;;;;;7.18;4.20;;;10.50;99.90;;;;;;4974185;28;20234;-80
2023/05/28 03:40:14;;;;;;;10.18;5.97;;;10.50;99.90;;;;;;4993709;28;20211;-83
2023/05/28 03:42:41;;;;;;;7.85;5.28;;;10.40;99.90;;;;;;4990541;28;20253;-84
2023/05/28 03:45:08;;;;;;;20.52;10.13;;;10.50;99.90;;;;;;4991635;28;20217;-87
2023/05/28 03:47:36;;;;;;;20.80;15.43;;;10.50;99.90;;;;;;4983420;28;20201;-84
2023/05/28 03:50:04;;;;;;;20.65;14.90;;;10.60;99.90;;;;;;5057660;23;20213;-81
2023/05/28 03:52:32;;;;;;;81.28;50.97;;;10.70;99.90;;;;;;4993938;28;20206;-83
2023/05/28 03:55:00;;;;;;;74.00;47.47;;;10.80;99.90;;;;;;5260211;23;20306;-81
2023/05/28 03:57:30;;;;;;;129.35;77.95;;;10.80;99.90;;;;;;5000598;28;20219;-82
2023/05/28 04:00:00;;;;;;;166.93;103.65;;;11.10;99.90;;;;;;4976004;28;20202;-85
2023/05/28 04:02:27;;;;;;;152.05;83.35;;;11.00;99.90;;;;;;5008302;28;20227;-82
2023/05/28 04:04:54;;;;;;;168.98;100.20;;;11.00;99.90;;;;;;4988593;28;20249;-80
2023/05/28 04:07:22;;;;;;;179.88;99.95;;;11.20;99.90;;;;;;5091371;23;20318;-80
2023/05/28 04:09:51;;;;;;;154.02;79.72;;;11.40;99.90;;;;;;4971810;28;20230;-81
2023/05/28 04:12:18;;;;;;;136.70;79.28;;;11.50;99.90;;;;;;4959174;28;20225;-80
2023/05/28 04:14:49;;;;;;;129.25;73.95;;;11.60;99.90;;;;;;4973229;28;20194;-81
2023/05/28 04:17:16;;;;;;;159.57;69.93;;;11.60;99.90;;;;;;4973414;28;20191;-82
2023/05/28 04:19:45;;;;;;;161.25;75.53;;;11.70;99.90;;;;;;4975867;28;20195;-86
2023/05/28 04:22:12;;;;;;;138.02;69.82;;;11.50;99.90;;;;;;4958054;28;20215;-86
2023/05/28 04:24:39;;;;;;;136.43;61.47;;;11.50;99.90;;;;;;4953225;28;20215;-83
2023/05/28 04:27:10;;;;;;;115.38;56.42;;;11.60;99.90;;;;;;4956293;28;20361;-85
2023/05/28 04:29:40;;;;;;;107.78;52.90;;;11.70;99.90;;;;;;4960003;28;20225;-88
2023/05/28 04:32:09;;;;;;;97.00;45.55;;;11.50;99.90;;;;;;4938693;29;20243;-87
2023/05/28 04:34:40;;;;;;;48.17;26.98;;;11.50;99.90;;;;;;4959733;28;20262;-83
2023/05/28 04:37:07;;;;;;;47.72;24.23;;;11.70;99.90;;;;;;4956111;28;20223;-84
2023/05/28 04:39:37;;;;;;;38.13;21.75;;;11.80;99.90;;;;;;4970389;28;20217;-83
2023/05/28 04:42:07;;;;;;;37.10;18.05;;;11.70;99.90;;;;;;4954232;28;20465;-83
2023/05/28 04:44:34;;;;;;;24.15;14.60;;;11.70;99.90;;;;;;4971973;28;20204;-87
2023/05/28 04:47:01;;;;;;;23.42;13.63;;;11.70;99.90;;;;;;4946122;28;20250;-82
2023/05/28 04:49:29;;;;;;;21.08;10.15;;;11.70;99.90;;;;;;4952369;28;20213;-82
2023/05/28 04:51:56;;;;;;;20.70;9.95;;;11.70;99.90;;;;;;4956234;28;20207;-84
2023/05/28 04:54:23;;;;;;;16.15;8.90;;;11.90;99.90;;;;;;4959701;28;20222;-82
2023/05/28 04:56:50;;;;;;;14.32;8.25;;;12.00;99.90;;;;;;4967445;28;20210;-83
2023/05/28 04:59:18;;;;;;;12.88;6.53;;;12.20;99.90;;;;;;4966211;28;20215;-85
2023/05/28 05:01:44;;;;;;;13.63;8.23;;;12.30;99.90;;;;;;4966007;28;20294;-79
2023/05/28 05:04:12;;;;;;;8.15;6.00;;;12.40;99.90;;;;;;4955828;28;20211;-82
2023/05/28 05:06:39;;;;;;;9.68;5.57;;;12.50;99.90;;;;;;4964834;29;20210;-84
2023/05/28 05:09:06;;;;;;;8.70;5.25;;;12.50;99.90;;;;;;4961281;29;20396;-85
2023/05/28 05:11:33;;;;;;;7.07;5.57;;;12.50;99.90;;;;;;4960872;28;20285;-84
2023/05/28 05:14:00;;;;;;;7.72;4.93;;;12.50;99.90;;;;;;4971697;28;20206;-82
2023/05/28 05:16:28;;;;;;;10.90;5.75;;;12.50;99.90;;;;;;4956157;28;20270;-83
2023/05/28 05:18:55;;;;;;;12.15;5.25;;;12.70;99.90;;;;;;4955379;28;20567;-86
2023/05/28 05:21:22;;;;;;;5.53;4.45;;;12.70;99.90;;;;;;4954201;28;20211;-86
2023/05/28 05:23:49;;;;;;;6.50;4.63;;;12.80;99.90;;;;;;4945695;28;20206;-82
2023/05/28 05:26:19;;;;;;;5.93;3.67;;;12.90;99.90;;;;;;4949791;28;20234;-85
2023/05/28 05:28:46;;;;;;;5.13;4.40;;;13.00;99.90;;;;;;4960593;28;20386;-82
2023/05/28 05:31:13;;;;;;;11.00;4.53;;;13.10;99.90;;;;;;4958256;28;20235;-84
2023/05/28 05:33:41;;;;;;;5.22;3.83;;;13.20;99.90;;;;;;4962884;28;20253;-85
2023/05/28 05:36:09;;;;;;;4.60;4.10;;;13.30;99.90;;;;;;4967449;28;20191;-81
2023/05/28 05:38:37;;;;;;;11.02;6.07;;;13.50;99.90;;;;;;4971141;28;20198;-86
2023/05/28 05:41:04;;;;;;;5.78;4.25;;;13.50;99.90;;;;;;4961269;28;20237;-86
2023/05/28 05:43:31;;;;;;;5.82;4.18;;;13.50;99.90;;;;;;4959036;28;20239;-85
2023/05/28 05:45:58;;;;;;;6.43;4.35;;;13.60;99.90;;;;;;4962170;28;20218;-84
2023/05/28 05:48:27;;;;;;;5.03;3.35;;;13.50;99.90;;;;;;4963940;28;20203;-81
2023/05/28 05:50:55;;;;;;;7.60;4.78;;;13.60;99.90;;;;;;4961547;28;20242;-82
2023/05/28 05:53:22;;;;;;;4.43;3.78;;;13.80;99.90;;;;;;4957976;28;20207;-87
2023/05/28 05:55:51;;;;;;;5.90;3.70;;;14.00;99.90;;;;;;4959480;28;20222;-84
2023/05/28 05:58:18;;;;;;;4.07;3.05;;;14.00;99.90;;;;;;4965208;28;20258;-83
2023/05/28 06:00:47;;;;;;;7.50;4.18;;;14.20;99.90;;;;;;4954142;28;20596;-82
2023/05/28 06:03:14;;;;;;;4.22;3.58;;;14.10;99.90;;;;;;4951333;28;20419;-87
2023/05/28 06:05:41;;;;;;;5.72;3.60;;;14.10;99.90;;;;;;4960242;28;20282;-84
2023/05/28 06:08:08;;;;;;;4.20;3.55;;;14.30;99.90;;;;;;4952241;28;20211;-87
2023/05/28 06:10:35;;;;;;;3.37;3.07;;;14.60;99.90;;;;;;4947092;28;20299;-81
2023/05/28 06:13:02;;;;;;;5.07;3.50;;;14.90;99.90;;;;;;4961223;28;20451;-85
2023/05/28 06:15:31;;;;;;;4.83;3.50;;;15.20;99.90;;;;;;4961594;28;20441;-80
2023/05/28 06:18:03;;;;;;;8.23;3.67;;;15.40;99.90;;;;;;4982706;28;20505;-80
2023/05/28 06:20:33;;;;;;;5.20;3.70;;;15.90;99.90;;;;;;4970721;28;20426;-81
2023/05/28 06:23:00;;;;;;;11.47;5.00;;;16.10;99.90;;;;;;4960408;28;20824;-81
2023/05/28 06:25:28;;;;;;;4.93;3.90;;;16.00;99.90;;;;;;4955724;28;20595;-83
2023/05/28 06:27:56;;;;;;;5.33;4.10;;;16.10;99.90;;;;;;4953622;28;20453;-83
2023/05/28 06:30:23;;;;;;;5.87;4.03;;;16.10;99.90;;;;;;4968448;28;20482;-81
2023/05/28 06:32:50;;;;;;;7.30;3.23;;;16.00;99.90;;;;;;4954453;28;20430;-83
2023/05/28 06:35:20;;;;;;;4.93;3.10;;;16.00;99.90;;;;;;4965683;28;20607;-83
2023/05/28 06:37:47;;;;;;;3.67;2.93;;;16.00;99.90;;;;;;4956957;28;20419;-83
2023/05/28 06:40:14;;;;;;;4.17;3.23;;;16.00;99.90;;;;;;4963389;28;20454;-82
2023/05/28 06:42:41;;;;;;;4.10;3.53;;;16.10;99.90;;;;;;4969278;28;20468;-83
2023/05/28 06:45:08;;;;;;;5.93;4.60;;;16.30;99.90;;;;;;4969382;28;20502;-84
2023/05/28 06:47:36;;;;;;;4.50;3.63;;;16.70;99.90;;;;;;4956037;28;20422;-81
2023/05/28 06:50:03;;;;;;;3.13;2.83;;;17.10;99.90;;;;;;4954289;29;20432;-84
2023/05/28 06:52:30;;;;;;;4.63;3.10;;;17.80;99.90;;;;;;4952996;28;20420;-82
2023/05/28 06:54:57;;;;;;;4.53;3.80;;;18.20;99.90;;;;;;4952746;28;20629;-81
2023/05/28 06:57:24;;;;;;;3.83;3.53;;;18.50;99.90;;;;;;4958006;28;20774;-88
2023/05/28 06:59:51;;;;;;;4.23;3.03;;;18.70;99.90;;;;;;4951230;28;20428;-82
2023/05/28 07:02:18;;;;;;;3.17;2.60;;;19.70;99.90;;;;;;4955476;28;20428;-83
2023/05/28 07:04:46;;;;;;;6.13;2.83;;;20.50;99.90;;;;;;4936103;29;20446;-82
2023/05/28 07:07:13;;;;;;;3.17;2.77;;;21.40;98.00;;;;;;4953480;28;20527;-84
2023/05/28 07:09:41;;;;;;;4.90;4.40;;;22.20;94.30;;;;;;4959455;28;20426;-80
2023/05/28 07:12:07;;;;;;;9.30;3.23;;;22.50;92.70;;;;;;4965614;28;20480;-83
2023/05/28 07:14:35;;;;;;;4.33;3.20;;;23.90;89.10;;;;;;4950276;28;20474;-88
2023/05/28 07:17:04;;;;;;;4.60;2.90;;;24.00;84.80;;;;;;4958072;28;20427;-86
2023/05/28 07:19:31;;;;;;;5.50;3.40;;;24.70;79.00;;;;;;4959212;28;20658;-83
2023/05/28 07:21:58;;;;;;;5.23;3.20;;;24.80;71.60;;;;;;4959621;29;20459;-84
2023/05/28 07:24:25;;;;;;;4.03;3.60;;;25.00;70.60;;;;;;4954699;28;20448;-83
2023/05/28 07:26:52;;;;;;;5.00;2.90;;;25.90;67.80;;;;;;4952257;28;20420;-83
2023/05/28 07:29:20;;;;;;;4.40;3.37;;;26.80;65.30;;;;;;4954969;28;20449;-83
2023/05/28 07:31:46;;;;;;;3.20;2.40;;;28.20;60.40;;;;;;4948965;28;20734;-86
2023/05/28 07:34:14;;;;;;;7.10;2.73;;;28.00;56.40;;;;;;4964965;28;20457;-80
2023/05/28 07:36:41;;;;;;;5.20;3.20;;;29.20;52.80;;;;;;4960394;28;20512;-83
2023/05/28 07:39:10;;;;;;;3.90;3.00;;;29.10;51.60;;;;;;4948016;28;20488;-82
2023/05/28 07:41:37;;;;;;;3.20;2.60;;;28.80;51.40;;;;;;4957577;28;20457;-85
2023/05/28 07:44:06;;;;;;;3.00;2.80;;;28.70;50.30;;;;;;4952951;28;20463;-83
2023/05/28 07:46:34;;;;;;;5.17;3.00;;;29.20;49.50;;;;;;4959088;28;20529;-81
2023/05/28 07:49:02;;;;;;;3.93;2.90;;;29.30;49.70;;;;;;4947982;28;20450;-81
2023/05/28 07:51:29;;;;;;;3.50;2.57;;;30.80;47.90;;;;;;4961661;28;20536;-83
2023/05/28 07:53:56;;;;;;;3.63;2.80;;;31.40;46.30;;;;;;4955066;28;20457;-83
2023/05/28 07:56:23;;;;;;;4.23;3.03;;;30.40;47.40;;;;;;4966135;28;20443;-84
2023/05/28 07:58:55;;;;;;;5.23;2.60;;;31.00;44.80;;;;;;4951213;28;20479;-85
2023/05/28 08:01:23;;;;;;;2.50;2.30;;;28.70;46.60;;;;;;4960561;28;20484;-81
2023/05/28 08:03:54;;;;;;;3.70;2.17;;;28.10;47.50;;;;;;4967500;28;20647;-83
2023/05/28 08:06:21;;;;;;;5.93;2.70;;;27.80;47.10;;;;;;4973970;28;20548;-81
2023/05/28 08:08:48;;;;;;;3.57;2.13;;;27.70;47.90;;;;;;4959765;28;20489;-80
2023/05/28 08:11:17;;;;;;;3.03;2.57;;;29.80;46.60;;;;;;4973018;28;20472;-82
2023/05/28 08:13:44;;;;;;;3.43;3.17;;;32.00;43.80;;;;;;4952259;28;20446;-84
2023/05/28 08:16:12;;;;;;;2.60;2.40;;;33.00;40.60;;;;;;4956392;28;20621;-84
2023/05/28 08:18:39;;;;;;;4.13;2.60;;;31.70;42.30;;;;;;4961370;28;20445;-82
2023/05/28 08:21:07;;;;;;;3.77;2.60;;;32.20;41.80;;;;;;4947455;28;20438;-82
2023/05/28 08:23:34;;;;;;;5.90;2.67;;;31.10;41.90;;;;;;4960927;28;20519;-83
2023/05/28 08:26:04;;;;;;;2.23;2.03;;;31.10;42.40;;;;;;4945166;28;20477;-81
2023/05/28 08:28:31;;;;;;;5.67;2.83;;;32.10;41.50;;;;;;4962509;28;20497;-81
2023/05/28 08:31:00;;;;;;;4.90;2.83;;;32.10;40.00;;;;;;4953524;28;20532;-82
2023/05/28 08:33:27;;;;;;;3.30;2.10;;;32.50;40.20;;;;;;4942341;29;20504;-83
2023/05/28 08:35:54;;;;;;;2.60;2.13;;;31.70;39.00;;;;;;4951974;28;20499;-83
2023/05/28 08:38:22;;;;;;;2.50;1.83;;;31.00;40.50;;;;;;4956593;28;20441;-82
2023/05/28 08:40:53;;;;;;;5.63;1.93;;;30.00;40.90;;;;;;4951770;28;20472;-82
2023/05/28 08:43:20;;;;;;;5.90;2.00;;;28.80;42.70;;;;;;4957536;28;20713;-85
2023/05/28 08:45:48;;;;;;;2.50;1.73;;;28.30;42.60;;;;;;4947975;28;20649;-82
2023/05/28 08:48:15;;;;;;;5.20;2.40;;;28.40;43.10;;;;;;4948993;28;20603;-81
2023/05/28 08:50:47;;;;;;;3.60;2.10;;;28.00;43.00;;;;;;4962329;28;20598;-79
2023/05/28 08:53:20;;;;;;;3.63;2.30;;;28.80;43.10;;;;;;4964124;28;20456;-81
2023/05/28 08:55:48;;;;;;;9.33;2.87;;;30.20;40.10;;;;;;4960472;28;20666;-80
2023/05/28 08:58:17;;;;;;;2.33;2.13;;;30.80;40.40;;;;;;4960930;28;20704;-83
2023/05/28 09:00:48;;;;;;;7.90;2.23;;;29.90;39.60;;;;;;4957899;28;20443;-80
2023/05/28 09:03:15;;;;;;;4.57;2.10;;;28.70;41.80;;;;;;4955878;28;20445;-84
2023/05/28 09:05:42;;;;;;;2.20;2.00;;;29.40;41.20;;;;;;4967680;28;20452;-83
2023/05/28 09:08:10;;;;;;;2.37;1.77;;;27.30;42.50;;;;;;4968710;28;20544;-81
2023/05/28 09:10:38;;;;;;;1.90;1.70;;;27.00;43.30;;;;;;4963165;28;20715;-84
2023/05/28 09:13:06;;;;;;;5.53;2.40;;;27.60;42.50;;;;;;4955551;28;20441;-84
2023/05/28 09:15:35;;;;;;;4.80;2.60;;;28.30;42.10;;;;;;4960848;28;20504;-81
2023/05/28 09:18:04;;;;;;;5.30;2.30;;;29.20;41.70;;;;;;4951619;28;20470;-83
2023/05/28 09:20:32;;;;;;;2.57;2.37;;;28.50;42.80;;;;;;4952307;28;20607;-83
2023/05/28 09:23:01;;;;;;;2.30;2.07;;;29.00;42.30;;;;;;4952280;28;20471;-86
2023/05/28 09:25:28;;;;;;;10.33;2.63;;;29.70;40.30;;;;;;4954841;28;20445;-81
2023/05/28 09:27:58;;;;;;;3.77;2.37;;;29.00;40.70;;;;;;4959791;28;20441;-83
2023/05/28 09:30:25;;;;;;;4.73;2.50;;;28.60;42.20;;;;;;4949490;28;20449;-85
2023/05/28 09:32:57;;;;;;;2.07;1.87;;;27.40;43.00;;;;;;4956370;28;20681;-81
2023/05/28 09:35:26;;;;;;;3.07;2.03;;;25.10;45.60;;;;;;4953971;28;20520;-85
2023/05/28 09:38:07;;;;;;;3.23;2.10;;;24.30;47.60;;;;;;4964663;28;20459;-81
2023/05/28 09:40:39;;;;;;;7.10;2.37;;;22.90;49.70;;;;;;4966446;28;20750;-82
2023/05/28 09:43:08;;;;;;;3.97;2.17;;;21.80;51.80;;;;;;4983938;28;20445;-82
2023/05/28 09:45:35;;;;;;;2.80;2.20;;;21.40;53.10;;;;;;4967506;28;20579;-83
2023/05/28 09:48:03;;;;;;;3.67;1.73;;;21.00;53.90;;;;;;4962787;28;20416;-81
2023/05/28 09:50:31;;;;;;;2.60;2.30;;;21.00;54.50;;;;;;4963484;28;20446;-84
2023/05/28 09:52:59;;;;;;;3.60;2.00;;;21.30;54.00;;;;;;4949970;28;20496;-83
2023/05/28 09:55:28;;;;;;;2.67;1.80;;;21.40;53.50;;;;;;4953073;28;20460;-83
2023/05/28 09:58:04;;;;;;;2.10;1.77;;;21.40;53.10;;;;;;4952553;28;20416;-82
2023/05/28 10:00:54;;;;;;;2.43;2.00;;;21.30;53.30;;;;;;4957836;29;20451;-83
2023/05/28 10:03:35;;;;;;;4.30;1.83;;;21.00;52.80;;;;;;4965518;28;20413;-85
2023/05/28 10:06:08;;;;;;;7.67;2.50;;;21.20;53.20;;;;;;4972607;28;20404;-79
2023/05/28 10:08:37;;;;;;;2.20;1.90;;;21.10;52.70;;;;;;4960587;28;20471;-83
2023/05/28 10:11:10;;;;;;;4.20;2.10;;;21.10;54.20;;;;;;4967926;28;20458;-83
2023/05/28 10:13:38;;;;;;;4.47;2.60;;;21.10;54.00;;;;;;4957243;28;20417;-82
2023/05/28 10:16:05;;;;;;;2.77;1.57;;;21.50;53.20;;;;;;4950577;28;20420;-82
2023/05/28 10:18:32;;;;;;;3.53;3.10;;;21.70;53.00;;;;;;4965691;28;20424;-82
2023/05/28 10:20:59;;;;;;;4.70;2.80;;;21.80;53.30;;;;;;4964446;28;20517;-83
2023/05/28 10:23:29;;;;;;;3.13;1.90;;;21.80;53.20;;;;;;4961913;28;20419;-83
2023/05/28 10:25:56;;;;;;;2.03;1.80;;;21.30;53.70;;;;;;4957791;28;20811;-85
2023/05/28 10:28:23;;;;;;;1.93;1.60;;;21.00;54.20;;;;;;4956144;28;20420;-85
2023/05/28 10:31:03;;;;;;;4.03;1.90;;;20.60;54.30;;;;;;4956752;28;20425;-80
2023/05/28 10:33:30;;;;;;;4.60;1.70;;;20.70;55.20;;;;;;4952871;28;20442;-84
2023/05/28 10:36:00;;;;;;;2.10;1.90;;;21.00;55.70;;;;;;4943314;29;20477;-84
2023/05/28 10:38:30;;;;;;;2.80;2.30;;;21.10;55.00;;;;;;4958159;28;20425;-83
2023/05/28 10:41:01;;;;;;;4.17;2.43;;;21.20;55.20;;;;;;4953728;28;20430;-80
2023/05/28 10:43:47;;;;;;;3.10;2.30;;;21.30;55.20;;;;;;4954962;28;20431;-85
2023/05/28 10:46:36;;;;;;;4.30;2.60;;;21.30;55.70;;;;;;4947087;28;20432;-82
2023/05/28 10:49:14;;;;;;;3.27;2.10;;;21.50;55.70;;;;;;4958671;28;20445;-83
2023/05/28 10:52:01;;;;;;;2.80;1.60;;;21.20;55.50;;;;;;4960845;28;20451;-83
2023/05/28 10:54:37;;;;;;;3.70;3.10;;;21.30;55.50;;;;;;4964111;29;20465;-85
2023/05/28 10:57:13;;;;;;;2.60;1.77;;;21.30;54.60;;;;;;4945001;28;20419;-81
2023/05/28 10:59:44;;;;;;;4.30;2.60;;;21.20;53.50;;;;;;4970714;28;20411;-82
2023/05/28 11:02:33;;;;;;;3.27;1.50;;;21.10;54.10;;;;;;4938029;29;20493;-83
2023/05/28 11:05:02;;;;;;;2.13;1.57;;;20.80;55.80;;;;;;4970222;28;20420;-83
2023/05/28 11:07:40;;;;;;;5.87;1.80;;;20.70;55.70;;;;;;4957887;28;20504;-82
2023/05/28 11:10:15;;;;;;;3.33;1.70;;;20.50;55.60;;;;;;4944004;28;20873;-84
2023/05/28 11:12:45;;;;;;;4.50;2.13;;;20.40;55.40;;;;;;4952244;28;20475;-81
2023/05/28 11:15:13;;;;;;;2.30;2.10;;;20.50;55.80;;;;;;4963786;28;20424;-87
2023/05/28 11:17:41;;;;;;;2.20;1.90;;;20.60;55.40;;;;;;4976520;28;20461;-86
2023/05/28 11:20:20;;;;;;;3.93;1.77;;;20.80;55.70;;;;;;4964817;28;20727;-82
2023/05/28 11:22:48;;;;;;;2.33;1.70;;;20.70;53.60;;;;;;4957246;28;20525;-85
2023/05/28 11:25:15;;;;;;;2.30;2.10;;;20.90;53.50;;;;;;4950559;28;20449;-84
2023/05/28 11:27:44;;;;;;;3.70;2.53;;;21.20;53.80;;;;;;4957080;28;20450;-83
2023/05/28 11:30:16;;;;;;;2.50;1.97;;;21.10;53.50;;;;;;4955657;28;20646;-81
2023/05/28 11:32:45;;;;;;;3.50;1.60;;;21.30;54.50;;;;;;4972988;28;20458;-82
2023/05/28 11:35:13;;;;;;;3.00;1.73;;;21.60;54.50;;;;;;4956934;28;20512;-81
2023/05/28 11:37:44;;;;;;;1.53;1.43;;;21.50;53.40;;;;;;4969524;28;20420;-81
2023/05/28 11:40:13;;;;;;;2.20;2.00;;;21.30;53.60;;;;;;4960341;28;20420;-80
2023/05/28 11:42:43;;;;;;;3.70;2.07;;;21.00;53.50;;;;;;4964130;29;20503;-81
2023/05/28 11:45:11;;;;;;;1.50;1.37;;;21.00;53.90;;;;;;4958041;28;20509;-83
2023/05/28 11:47:39;;;;;;;5.10;1.90;;;21.20;54.60;;;;;;4951299;28;20447;-82
2023/05/28 11:50:07;;;;;;;5.83;2.17;;;21.20;53.30;;;;;;4950569;28;20444;-83
2023/05/28 11:52:35;;;;;;;1.97;1.50;;;21.30;53.90;;;;;;4961611;29;20844;-82
2023/05/28 11:55:03;;;;;;;2.10;1.70;;;21.30;54.10;;;;;;4963587;28;20428;-87
2023/05/28 11:57:33;;;;;;;3.00;2.10;;;21.40;53.10;;;;;;4959957;28;20456;-85
2023/05/28 12:00:15;;;;;;;2.50;1.50;;;21.30;53.90;;;;;;4956359;28;20790;-86
2023/05/28 12:02:46;;;;;;;1.77;1.47;;;21.40;54.60;;;;;;4963029;28;20422;-83
2023/05/28 12:05:18;;;;;;;2.43;1.70;;;21.40;55.20;;;;;;4946097;29;20484;-82
2023/05/28 12:07:52;;;;;;;2.93;1.40;;;21.50;54.70;;;;;;4964996;28;20468;-85
2023/05/28 12:10:26;;;;;;;2.67;1.90;;;21.60;54.30;;;;;;4950678;28;20419;-83
2023/05/28 12:12:56;;;;;;;1.60;1.50;;;21.40;54.80;;;;;;4954786;28;20678;-85
2023/05/28 12:15:30;;;;;;;3.00;1.97;;;21.20;54.90;;;;;;4944632;29;20673;-84
2023/05/28 12:18:00;;;;;;;4.13;2.63;;;21.20;55.70;;;;;;4963033;28;20798;-84
2023/05/28 12:20:30;;;;;;;1.83;1.37;;;21.40;55.20;;;;;;4960057;28;20492;-86
2023/05/28 12:23:08;;;;;;;2.03;1.63;;;21.40;55.50;;;;;;4974747;28;20696;-79
2023/05/28 12:25:47;;;;;;;4.20;2.20;;;21.20;55.50;;;;;;4947386;28;20861;-84
2023/05/28 12:28:16;;;;;;;2.70;1.67;;;21.10;55.40;;;;;;4962455;28;20515;-82
2023/05/28 12:30:50;;;;;;;2.53;1.63;;;21.10;54.90;;;;;;4973419;28;20424;-83
2023/05/28 12:33:18;;;;;;;2.43;1.80;;;21.20;56.50;;;;;;4957039;28;20493;-84
2023/05/28 12:35:46;;;;;;;2.60;2.07;;;21.30;55.40;;;;;;4967474;28;20424;-82
2023/05/28 12:38:14;;;;;;;2.67;1.70;;;21.30;55.80;;;;;;4965732;28;20457;-83
2023/05/28 12:40:41;;;;;;;1.93;1.83;;;21.30;53.80;;;;;;4978394;28;20899;-84
2023/05/28 12:43:08;;;;;;;3.50;1.90;;;21.20;53.60;;;;;;4947342;29;20457;-82
2023/05/28 12:45:35;;;;;;;2.17;1.90;;;21.10;53.60;;;;;;4953556;28;20446;-81
2023/05/28 12:48:03;;;;;;;2.60;1.93;;;21.00;53.60;;;;;;4955886;28;20504;-85
2023/05/28 12:50:30;;;;;;;4.57;3.03;;;21.10;53.90;;;;;;4952067;28;20437;-83
2023/05/28 12:52:58;;;;;;;4.87;1.90;;;21.10;53.60;;;;;;4960262;28;20484;-80